sensor_id;sensor_type;location;lat;lon;timestamp;temperature;humidity
65374;SHT31;52070;53.760;9.678;2023-07-31T00:01:21;14.22;95.48
65374;SHT31;52070;53.760;9.678;2023-07-31T00:03:49;14.21;95.47
65374;SHT31;52070;53.760;9.678;2023-07-31T00:06:16;14.26;95.47
65374;SHT31;52070;53.760;9.678;2023-07-31T00:08:43;14.26;95.52
65374;SHT31;52070;53.760;9.678;2023-07-31T00:11:10;14.22;95.51
65374;SHT31;52070;53.760;9.678;2023-07-31T00:13:37;14.21;95.52
65374;SHT31;52070;53.760;9.678;2023-07-31T00:16:04;14.20;95.52
65374;SHT31;52070;53.760;9.678;2023-07-31T00:18:32;14.24;95.51
65374;SHT31;52070;53.760;9.678;2023-07-31T00:21:00;14.21;95.55
65374;SHT31;52070;53.760;9.678;2023-07-31T00:23:27;14.25;95.53
65374;SHT31;52070;53.760;9.678;2023-07-31T00:25:54;14.26;95.57
65374;SHT31;52070;53.760;9.678;2023-07-31T00:28:21;14.25;95.60
65374;SHT31;52070;53.760;9.678;2023-07-31T00:30:48;14.28;95.65
65374;SHT31;52070;53.760;9.678;2023-07-31T00:33:15;14.25;95.67
65374;SHT31;52070;53.760;9.678;2023-07-31T00:35:42;14.25;95.62
65374;SHT31;52070;53.760;9.678;2023-07-31T00:38:11;14.26;95.62
65374;SHT31;52070;53.760;9.678;2023-07-31T00:40:38;14.31;95.54
65374;SHT31;52070;53.760;9.678;2023-07-31T00:43:05;14.29;95.45
65374;SHT31;52070;53.760;9.678;2023-07-31T00:45:32;14.29;95.35
65374;SHT31;52070;53.760;9.678;2023-07-31T00:47:59;14.29;95.25
65374;SHT31;52070;53.760;9.678;2023-07-31T00:50:26;14.29;95.24
65374;SHT31;52070;53.760;9.678;2023-07-31T00:52:55;14.31;95.26
65374;SHT31;52070;53.760;9.678;2023-07-31T00:55:23;14.29;95.23
65374;SHT31;52070;53.760;9.678;2023-07-31T00:57:50;14.29;95.18
65374;SHT31;52070;53.760;9.678;2023-07-31T01:00:18;14.31;95.15
65374;SHT31;52070;53.760;9.678;2023-07-31T01:02:46;14.29;95.12
65374;SHT31;52070;53.760;9.678;2023-07-31T01:05:15;14.31;95.08
65374;SHT31;52070;53.760;9.678;2023-07-31T01:07:45;14.35;94.89
65374;SHT31;52070;53.760;9.678;2023-07-31T01:10:16;14.32;94.81
65374;SHT31;52070;53.760;9.678;2023-07-31T01:12:50;14.29;94.69
65374;SHT31;52070;53.760;9.678;2023-07-31T01:15:17;14.26;94.65
65374;SHT31;52070;53.760;9.678;2023-07-31T01:17:45;14.25;94.57
65374;SHT31;52070;53.760;9.678;2023-07-31T01:20:21;14.22;94.52
65374;SHT31;52070;53.760;9.678;2023-07-31T01:26:00;14.18;94.56
65374;SHT31;52070;53.760;9.678;2023-07-31T01:28:40;14.18;94.60
65374;SHT31;52070;53.760;9.678;2023-07-31T01:31:12;14.17;94.54
65374;SHT31;52070;53.760;9.678;2023-07-31T01:33:41;14.18;94.60
65374;SHT31;52070;53.760;9.678;2023-07-31T01:36:08;14.20;94.64
65374;SHT31;52070;53.760;9.678;2023-07-31T01:38:35;14.20;94.61
65374;SHT31;52070;53.760;9.678;2023-07-31T01:41:04;14.15;94.58
65374;SHT31;52070;53.760;9.678;2023-07-31T01:43:31;14.14;94.63
65374;SHT31;52070;53.760;9.678;2023-07-31T01:45:58;14.08;94.67
65374;SHT31;52070;53.760;9.678;2023-07-31T01:48:25;14.15;94.68
65374;SHT31;52070;53.760;9.678;2023-07-31T01:50:52;14.13;94.68
65374;SHT31;52070;53.760;9.678;2023-07-31T01:53:20;14.08;94.64
65374;SHT31;52070;53.760;9.678;2023-07-31T01:55:47;14.01;94.65
65374;SHT31;52070;53.760;9.678;2023-07-31T01:58:15;14.01;94.71
65374;SHT31;52070;53.760;9.678;2023-07-31T02:00:42;14.00;94.80
65374;SHT31;52070;53.760;9.678;2023-07-31T02:03:09;13.98;94.85
65374;SHT31;52070;53.760;9.678;2023-07-31T02:05:37;13.98;94.90
65374;SHT31;52070;53.760;9.678;2023-07-31T02:08:10;14.05;94.93
65374;SHT31;52070;53.760;9.678;2023-07-31T02:10:37;14.04;94.99
65374;SHT31;52070;53.760;9.678;2023-07-31T02:13:04;14.04;95.01
65374;SHT31;52070;53.760;9.678;2023-07-31T02:15:33;14.04;95.05
65374;SHT31;52070;53.760;9.678;2023-07-31T02:18:00;14.07;95.10
65374;SHT31;52070;53.760;9.678;2023-07-31T02:20:27;14.08;95.10
65374;SHT31;52070;53.760;9.678;2023-07-31T02:22:54;14.11;95.14
65374;SHT31;52070;53.760;9.678;2023-07-31T02:25:21;14.11;95.14
65374;SHT31;52070;53.760;9.678;2023-07-31T02:27:48;14.11;95.16
65374;SHT31;52070;53.760;9.678;2023-07-31T02:30:15;14.11;95.21
65374;SHT31;52070;53.760;9.678;2023-07-31T02:32:43;14.13;95.29
65374;SHT31;52070;53.760;9.678;2023-07-31T02:35:10;14.13;95.30
65374;SHT31;52070;53.760;9.678;2023-07-31T02:37:41;14.15;95.32
65374;SHT31;52070;53.760;9.678;2023-07-31T02:40:08;14.18;95.32
65374;SHT31;52070;53.760;9.678;2023-07-31T02:42:35;14.18;95.36
65374;SHT31;52070;53.760;9.678;2023-07-31T02:45:03;14.22;95.38
65374;SHT31;52070;53.760;9.678;2023-07-31T02:47:30;14.24;95.34
65374;SHT31;52070;53.760;9.678;2023-07-31T02:49:59;14.22;95.33
65374;SHT31;52070;53.760;9.678;2023-07-31T02:52:26;14.31;95.35
65374;SHT31;52070;53.760;9.678;2023-07-31T02:54:53;14.31;95.37
65374;SHT31;52070;53.760;9.678;2023-07-31T02:57:20;14.31;95.38
65374;SHT31;52070;53.760;9.678;2023-07-31T02:59:48;14.34;95.41
65374;SHT31;52070;53.760;9.678;2023-07-31T03:02:15;14.35;95.34
65374;SHT31;52070;53.760;9.678;2023-07-31T03:04:42;14.38;95.30
65374;SHT31;52070;53.760;9.678;2023-07-31T03:07:10;14.38;95.26
65374;SHT31;52070;53.760;9.678;2023-07-31T03:09:37;14.38;95.21
65374;SHT31;52070;53.760;9.678;2023-07-31T03:12:05;14.35;95.26
65374;SHT31;52070;53.760;9.678;2023-07-31T03:14:32;14.38;95.35
65374;SHT31;52070;53.760;9.678;2023-07-31T03:17:00;14.38;95.35
65374;SHT31;52070;53.760;9.678;2023-07-31T03:19:27;14.36;95.39
65374;SHT31;52070;53.760;9.678;2023-07-31T03:21:56;14.39;95.42
65374;SHT31;52070;53.760;9.678;2023-07-31T03:24:25;14.42;95.39
65374;SHT31;52070;53.760;9.678;2023-07-31T03:26:52;14.44;95.34
65374;SHT31;52070;53.760;9.678;2023-07-31T03:29:19;14.45;95.26
65374;SHT31;52070;53.760;9.678;2023-07-31T03:31:46;14.46;95.29
65374;SHT31;52070;53.760;9.678;2023-07-31T03:34:13;14.48;95.23
65374;SHT31;52070;53.760;9.678;2023-07-31T03:36:40;14.48;95.29
65374;SHT31;52070;53.760;9.678;2023-07-31T03:39:07;14.58;95.32
65374;SHT31;52070;53.760;9.678;2023-07-31T03:41:36;14.58;95.31
65374;SHT31;52070;53.760;9.678;2023-07-31T03:44:03;14.58;95.22
65374;SHT31;52070;53.760;9.678;2023-07-31T03:46:30;14.61;95.11
65374;SHT31;52070;53.760;9.678;2023-07-31T03:48:57;14.62;95.12
65374;SHT31;52070;53.760;9.678;2023-07-31T03:51:24;14.69;95.04
65374;SHT31;52070;53.760;9.678;2023-07-31T03:53:51;14.71;94.94
65374;SHT31;52070;53.760;9.678;2023-07-31T03:56:18;14.73;94.93
65374;SHT31;52070;53.760;9.678;2023-07-31T03:58:47;14.76;94.88
65374;SHT31;52070;53.760;9.678;2023-07-31T04:01:14;14.80;94.82
65374;SHT31;52070;53.760;9.678;2023-07-31T04:03:41;14.83;94.87
65374;SHT31;52070;53.760;9.678;2023-07-31T04:06:08;14.85;94.87
65374;SHT31;52070;53.760;9.678;2023-07-31T04:08:36;14.83;94.91
65374;SHT31;52070;53.760;9.678;2023-07-31T04:11:03;14.82;94.86
65374;SHT31;52070;53.760;9.678;2023-07-31T04:13:30;14.86;94.85
65374;SHT31;52070;53.760;9.678;2023-07-31T04:15:58;14.92;94.84
65374;SHT31;52070;53.760;9.678;2023-07-31T04:18:25;14.90;94.84
65374;SHT31;52070;53.760;9.678;2023-07-31T04:20:53;14.90;94.83
65374;SHT31;52070;53.760;9.678;2023-07-31T04:23:20;14.93;94.74
65374;SHT31;52070;53.760;9.678;2023-07-31T04:25:47;14.95;94.77
65374;SHT31;52070;53.760;9.678;2023-07-31T04:28:14;14.96;94.67
65374;SHT31;52070;53.760;9.678;2023-07-31T04:30:41;14.96;94.58
65374;SHT31;52070;53.760;9.678;2023-07-31T04:33:10;14.98;94.50
65374;SHT31;52070;53.760;9.678;2023-07-31T04:35:37;15.03;94.49
65374;SHT31;52070;53.760;9.678;2023-07-31T04:38:04;14.99;94.49
65374;SHT31;52070;53.760;9.678;2023-07-31T04:40:31;15.03;94.31
65374;SHT31;52070;53.760;9.678;2023-07-31T04:42:58;15.03;94.30
65374;SHT31;52070;53.760;9.678;2023-07-31T04:45:25;15.10;94.36
65374;SHT31;52070;53.760;9.678;2023-07-31T04:47:52;15.06;94.40
65374;SHT31;52070;53.760;9.678;2023-07-31T04:50:20;15.07;94.31
65374;SHT31;52070;53.760;9.678;2023-07-31T04:52:48;15.09;94.30
65374;SHT31;52070;53.760;9.678;2023-07-31T04:55:15;15.11;94.28
65374;SHT31;52070;53.760;9.678;2023-07-31T04:57:42;15.11;94.18
65374;SHT31;52070;53.760;9.678;2023-07-31T05:00:10;15.13;94.10
65374;SHT31;52070;53.760;9.678;2023-07-31T05:02:37;15.11;94.03
65374;SHT31;52070;53.760;9.678;2023-07-31T05:05:04;15.16;94.10
65374;SHT31;52070;53.760;9.678;2023-07-31T05:07:32;15.16;94.05
65374;SHT31;52070;53.760;9.678;2023-07-31T05:10:00;15.16;94.02
65374;SHT31;52070;53.760;9.678;2023-07-31T05:12:27;15.14;94.05
65374;SHT31;52070;53.760;9.678;2023-07-31T05:14:55;15.13;93.87
65374;SHT31;52070;53.760;9.678;2023-07-31T05:17:22;15.14;94.03
65374;SHT31;52070;53.760;9.678;2023-07-31T05:19:49;15.18;93.99
65374;SHT31;52070;53.760;9.678;2023-07-31T05:22:16;15.18;93.95
65374;SHT31;52070;53.760;9.678;2023-07-31T05:24:45;15.19;94.02
65374;SHT31;52070;53.760;9.678;2023-07-31T05:27:12;15.24;94.23
65374;SHT31;52070;53.760;9.678;2023-07-31T05:29:40;15.26;94.17
65374;SHT31;52070;53.760;9.678;2023-07-31T05:32:07;15.24;94.25
65374;SHT31;52070;53.760;9.678;2023-07-31T05:34:35;15.27;94.29
65374;SHT31;52070;53.760;9.678;2023-07-31T05:37:02;15.26;94.37
65374;SHT31;52070;53.760;9.678;2023-07-31T05:39:29;15.27;94.30
65374;SHT31;52070;53.760;9.678;2023-07-31T05:41:57;15.29;94.34
65374;SHT31;52070;53.760;9.678;2023-07-31T05:44:24;15.27;94.21
65374;SHT31;52070;53.760;9.678;2023-07-31T05:46:52;15.27;94.12
65374;SHT31;52070;53.760;9.678;2023-07-31T05:49:19;15.31;94.28
65374;SHT31;52070;53.760;9.678;2023-07-31T05:51:46;15.29;94.20
65374;SHT31;52070;53.760;9.678;2023-07-31T05:54:13;15.29;94.35
65374;SHT31;52070;53.760;9.678;2023-07-31T05:56:40;15.29;94.44
65374;SHT31;52070;53.760;9.678;2023-07-31T05:59:09;15.34;94.46
65374;SHT31;52070;53.760;9.678;2023-07-31T06:01:37;15.31;94.53
65374;SHT31;52070;53.760;9.678;2023-07-31T06:04:04;15.29;94.49
65374;SHT31;52070;53.760;9.678;2023-07-31T06:06:31;15.29;94.50
65374;SHT31;52070;53.760;9.678;2023-07-31T06:08:58;15.31;94.64
65374;SHT31;52070;53.760;9.678;2023-07-31T06:11:25;15.36;94.73
65374;SHT31;52070;53.760;9.678;2023-07-31T06:13:52;15.33;94.66
65374;SHT31;52070;53.760;9.678;2023-07-31T06:16:21;15.30;94.66
65374;SHT31;52070;53.760;9.678;2023-07-31T06:18:48;15.33;94.81
65374;SHT31;52070;53.760;9.678;2023-07-31T06:21:15;15.36;94.96
65374;SHT31;52070;53.760;9.678;2023-07-31T06:23:42;15.41;95.03
65374;SHT31;52070;53.760;9.678;2023-07-31T06:26:09;15.40;95.01
65374;SHT31;52070;53.760;9.678;2023-07-31T06:28:36;15.47;95.05
65374;SHT31;52070;53.760;9.678;2023-07-31T06:31:03;15.41;95.12
65374;SHT31;52070;53.760;9.678;2023-07-31T06:33:32;15.41;95.05
65374;SHT31;52070;53.760;9.678;2023-07-31T06:35:59;15.44;95.02
65374;SHT31;52070;53.760;9.678;2023-07-31T06:38:26;15.44;95.08
65374;SHT31;52070;53.760;9.678;2023-07-31T06:40:54;15.50;95.21
65374;SHT31;52070;53.760;9.678;2023-07-31T06:43:21;15.49;95.35
65374;SHT31;52070;53.760;9.678;2023-07-31T06:45:48;15.53;95.26
65374;SHT31;52070;53.760;9.678;2023-07-31T06:48:17;15.49;95.22
65374;SHT31;52070;53.760;9.678;2023-07-31T06:50:45;15.50;95.18
65374;SHT31;52070;53.760;9.678;2023-07-31T06:53:12;15.51;95.21
65374;SHT31;52070;53.760;9.678;2023-07-31T06:55:39;15.49;95.20
65374;SHT31;52070;53.760;9.678;2023-07-31T06:58:06;15.54;95.30
65374;SHT31;52070;53.760;9.678;2023-07-31T07:00:33;15.55;95.31
65374;SHT31;52070;53.760;9.678;2023-07-31T07:03:00;15.50;95.37
65374;SHT31;52070;53.760;9.678;2023-07-31T07:05:27;15.57;95.51
65374;SHT31;52070;53.760;9.678;2023-07-31T07:07:56;15.55;95.45
65374;SHT31;52070;53.760;9.678;2023-07-31T07:10:23;15.57;95.52
65374;SHT31;52070;53.760;9.678;2023-07-31T07:12:50;15.54;95.69
65374;SHT31;52070;53.760;9.678;2023-07-31T07:15:17;15.54;95.84
65374;SHT31;52070;53.760;9.678;2023-07-31T07:17:44;15.54;95.82
65374;SHT31;52070;53.760;9.678;2023-07-31T07:20:12;15.53;95.84
65374;SHT31;52070;53.760;9.678;2023-07-31T07:22:39;15.51;95.92
65374;SHT31;52070;53.760;9.678;2023-07-31T07:25:10;15.55;96.00
65374;SHT31;52070;53.760;9.678;2023-07-31T07:27:37;15.57;96.05
65374;SHT31;52070;53.760;9.678;2023-07-31T07:30:05;15.60;96.02
65374;SHT31;52070;53.760;9.678;2023-07-31T07:32:32;15.57;95.99
65374;SHT31;52070;53.760;9.678;2023-07-31T07:34:59;15.60;95.87
65374;SHT31;52070;53.760;9.678;2023-07-31T07:37:26;15.68;95.88
65374;SHT31;52070;53.760;9.678;2023-07-31T07:39:54;15.64;95.77
65374;SHT31;52070;53.760;9.678;2023-07-31T07:42:22;15.74;95.71
65374;SHT31;52070;53.760;9.678;2023-07-31T07:44:49;15.77;95.66
65374;SHT31;52070;53.760;9.678;2023-07-31T07:47:17;15.85;95.57
65374;SHT31;52070;53.760;9.678;2023-07-31T07:49:44;15.88;95.38
65374;SHT31;52070;53.760;9.678;2023-07-31T07:52:11;15.88;95.37
65374;SHT31;52070;53.760;9.678;2023-07-31T07:54:38;15.97;95.34
65374;SHT31;52070;53.760;9.678;2023-07-31T07:57:05;15.91;95.25
65374;SHT31;52070;53.760;9.678;2023-07-31T07:59:34;15.94;95.19
65374;SHT31;52070;53.760;9.678;2023-07-31T08:02:01;15.91;94.95
65374;SHT31;52070;53.760;9.678;2023-07-31T08:04:28;15.91;94.82
65374;SHT31;52070;53.760;9.678;2023-07-31T08:06:55;16.02;94.79
65374;SHT31;52070;53.760;9.678;2023-07-31T08:09:22;16.05;94.83
65374;SHT31;52070;53.760;9.678;2023-07-31T08:11:49;16.15;94.87
65374;SHT31;52070;53.760;9.678;2023-07-31T08:14:19;16.11;94.68
65374;SHT31;52070;53.760;9.678;2023-07-31T08:16:47;16.14;94.56
65374;SHT31;52070;53.760;9.678;2023-07-31T08:19:15;16.19;94.48
65374;SHT31;52070;53.760;9.678;2023-07-31T08:21:42;16.32;94.42
65374;SHT31;52070;53.760;9.678;2023-07-31T08:24:09;16.33;94.19
65374;SHT31;52070;53.760;9.678;2023-07-31T08:26:36;16.32;94.04
65374;SHT31;52070;53.760;9.678;2023-07-31T08:29:03;16.24;93.72
65374;SHT31;52070;53.760;9.678;2023-07-31T08:31:30;16.29;93.75
65374;SHT31;52070;53.760;9.678;2023-07-31T08:33:59;16.35;93.97
65374;SHT31;52070;53.760;9.678;2023-07-31T08:36:26;16.42;94.26
65374;SHT31;52070;53.760;9.678;2023-07-31T08:38:53;16.32;94.12
65374;SHT31;52070;53.760;9.678;2023-07-31T08:41:20;16.38;94.20
65374;SHT31;52070;53.760;9.678;2023-07-31T08:43:49;16.33;93.73
65374;SHT31;52070;53.760;9.678;2023-07-31T08:46:16;16.38;93.88
65374;SHT31;52070;53.760;9.678;2023-07-31T08:48:44;16.44;93.97
65374;SHT31;52070;53.760;9.678;2023-07-31T08:51:15;16.48;94.17
65374;SHT31;52070;53.760;9.678;2023-07-31T08:53:42;16.56;94.24
65374;SHT31;52070;53.760;9.678;2023-07-31T08:56:11;16.41;94.07
65374;SHT31;52070;53.760;9.678;2023-07-31T08:58:41;16.30;93.79
65374;SHT31;52070;53.760;9.678;2023-07-31T09:01:09;16.28;93.89
65374;SHT31;52070;53.760;9.678;2023-07-31T09:03:38;16.32;93.76
65374;SHT31;52070;53.760;9.678;2023-07-31T09:06:06;16.24;93.72
65374;SHT31;52070;53.760;9.678;2023-07-31T09:08:38;16.39;93.85
65374;SHT31;52070;53.760;9.678;2023-07-31T09:11:07;16.59;94.26
65374;SHT31;52070;53.760;9.678;2023-07-31T09:13:34;16.49;94.08
65374;SHT31;52070;53.760;9.678;2023-07-31T09:16:01;16.48;94.04
65374;SHT31;52070;53.760;9.678;2023-07-31T09:18:28;16.51;93.85
65374;SHT31;52070;53.760;9.678;2023-07-31T09:21:03;16.46;93.79
65374;SHT31;52070;53.760;9.678;2023-07-31T09:23:45;16.41;93.34
65374;SHT31;52070;53.760;9.678;2023-07-31T09:26:29;16.42;93.25
65374;SHT31;52070;53.760;9.678;2023-07-31T09:28:56;16.39;93.09
65374;SHT31;52070;53.760;9.678;2023-07-31T09:31:32;16.39;93.03
65374;SHT31;52070;53.760;9.678;2023-07-31T09:33:59;16.56;93.40
65374;SHT31;52070;53.760;9.678;2023-07-31T09:36:29;16.60;93.40
65374;SHT31;52070;53.760;9.678;2023-07-31T09:39:02;16.53;93.15
65374;SHT31;52070;53.760;9.678;2023-07-31T09:41:30;16.57;92.97
65374;SHT31;52070;53.760;9.678;2023-07-31T09:43:57;16.51;93.18
65374;SHT31;52070;53.760;9.678;2023-07-31T09:46:27;16.60;93.28
65374;SHT31;52070;53.760;9.678;2023-07-31T09:49:06;16.75;93.61
65374;SHT31;52070;53.760;9.678;2023-07-31T09:51:44;16.56;93.19
65374;SHT31;52070;53.760;9.678;2023-07-31T09:54:16;16.60;93.33
65374;SHT31;52070;53.760;9.678;2023-07-31T09:56:46;16.69;93.60
65374;SHT31;52070;53.760;9.678;2023-07-31T09:59:14;16.60;93.44
65374;SHT31;52070;53.760;9.678;2023-07-31T10:01:42;16.53;93.32
65374;SHT31;52070;53.760;9.678;2023-07-31T10:04:10;16.45;93.56
65374;SHT31;52070;53.760;9.678;2023-07-31T10:06:38;16.48;93.64
65374;SHT31;52070;53.760;9.678;2023-07-31T10:09:07;16.51;94.04
65374;SHT31;52070;53.760;9.678;2023-07-31T10:11:38;16.48;94.01
65374;SHT31;52070;53.760;9.678;2023-07-31T10:14:07;16.53;94.15
65374;SHT31;52070;53.760;9.678;2023-07-31T10:16:35;16.48;93.94
65374;SHT31;52070;53.760;9.678;2023-07-31T10:19:02;16.55;94.01
65374;SHT31;52070;53.760;9.678;2023-07-31T10:21:30;16.62;94.25
65374;SHT31;52070;53.760;9.678;2023-07-31T10:24:01;16.51;93.94
65374;SHT31;52070;53.760;9.678;2023-07-31T10:26:31;16.32;93.37
65374;SHT31;52070;53.760;9.678;2023-07-31T10:28:59;16.25;93.34
65374;SHT31;52070;53.760;9.678;2023-07-31T10:31:28;16.21;93.53
65374;SHT31;52070;53.760;9.678;2023-07-31T10:33:57;16.21;93.69
65374;SHT31;52070;53.760;9.678;2023-07-31T10:36:25;16.18;93.46
65374;SHT31;52070;53.760;9.678;2023-07-31T10:38:52;16.25;94.00
65374;SHT31;52070;53.760;9.678;2023-07-31T10:41:28;16.30;94.36
65374;SHT31;52070;53.760;9.678;2023-07-31T10:43:57;16.25;94.44
65374;SHT31;52070;53.760;9.678;2023-07-31T10:46:27;16.25;94.51
65374;SHT31;52070;53.760;9.678;2023-07-31T10:48:57;16.26;94.55
65374;SHT31;52070;53.760;9.678;2023-07-31T10:51:26;16.15;94.34
65374;SHT31;52070;53.760;9.678;2023-07-31T10:54:10;16.26;94.51
65374;SHT31;52070;53.760;9.678;2023-07-31T10:56:38;16.25;94.60
65374;SHT31;52070;53.760;9.678;2023-07-31T10:59:05;16.15;94.06
65374;SHT31;52070;53.760;9.678;2023-07-31T11:02:01;16.09;93.87
65374;SHT31;52070;53.760;9.678;2023-07-31T11:04:29;16.09;93.83
65374;SHT31;52070;53.760;9.678;2023-07-31T11:06:59;15.97;93.83
65374;SHT31;52070;53.760;9.678;2023-07-31T11:09:28;15.85;92.47
65374;SHT31;52070;53.760;9.678;2023-07-31T11:11:58;15.84;92.15
65374;SHT31;52070;53.760;9.678;2023-07-31T11:14:25;15.85;92.14
65374;SHT31;52070;53.760;9.678;2023-07-31T11:16:52;15.85;92.26
65374;SHT31;52070;53.760;9.678;2023-07-31T11:19:24;15.85;92.52
65374;SHT31;52070;53.760;9.678;2023-07-31T11:21:52;15.91;92.53
65374;SHT31;52070;53.760;9.678;2023-07-31T11:24:19;16.02;92.97
65374;SHT31;52070;53.760;9.678;2023-07-31T11:26:50;15.97;92.69
65374;SHT31;52070;53.760;9.678;2023-07-31T11:29:18;15.94;92.16
65374;SHT31;52070;53.760;9.678;2023-07-31T11:31:47;16.14;92.66
65374;SHT31;52070;53.760;9.678;2023-07-31T11:34:15;16.09;92.69
65374;SHT31;52070;53.760;9.678;2023-07-31T11:36:53;16.04;92.02
65374;SHT31;52070;53.760;9.678;2023-07-31T11:39:21;16.15;91.20
65374;SHT31;52070;53.760;9.678;2023-07-31T11:41:48;16.12;91.53
65374;SHT31;52070;53.760;9.678;2023-07-31T11:44:15;15.95;90.98
65374;SHT31;52070;53.760;9.678;2023-07-31T11:46:43;16.00;91.07
65374;SHT31;52070;53.760;9.678;2023-07-31T11:49:10;16.01;91.27
65374;SHT31;52070;53.760;9.678;2023-07-31T11:51:37;16.19;91.51
65374;SHT31;52070;53.760;9.678;2023-07-31T11:54:06;16.29;92.00
65374;SHT31;52070;53.760;9.678;2023-07-31T11:56:33;16.35;92.28
65374;SHT31;52070;53.760;9.678;2023-07-31T11:59:01;16.38;92.20
65374;SHT31;52070;53.760;9.678;2023-07-31T12:01:31;16.49;92.19
65374;SHT31;52070;53.760;9.678;2023-07-31T12:03:58;16.49;92.05
65374;SHT31;52070;53.760;9.678;2023-07-31T12:06:33;16.29;91.63
65374;SHT31;52070;53.760;9.678;2023-07-31T12:09:01;16.15;90.37
65374;SHT31;52070;53.760;9.678;2023-07-31T12:11:30;16.26;90.90
65374;SHT31;52070;53.760;9.678;2023-07-31T12:13:57;16.39;91.30
65374;SHT31;52070;53.760;9.678;2023-07-31T12:16:26;16.52;91.50
65374;SHT31;52070;53.760;9.678;2023-07-31T12:18:53;16.62;91.76
65374;SHT31;52070;53.760;9.678;2023-07-31T12:21:20;16.67;91.99
65374;SHT31;52070;53.760;9.678;2023-07-31T12:23:47;16.72;92.24
65374;SHT31;52070;53.760;9.678;2023-07-31T12:26:16;16.72;92.35
65374;SHT31;52070;53.760;9.678;2023-07-31T12:28:46;16.62;92.34
65374;SHT31;52070;53.760;9.678;2023-07-31T12:31:14;16.63;91.89
65374;SHT31;52070;53.760;9.678;2023-07-31T12:33:43;16.57;91.73
65374;SHT31;52070;53.760;9.678;2023-07-31T12:36:12;16.49;91.69
65374;SHT31;52070;53.760;9.678;2023-07-31T12:38:40;16.46;91.82
65374;SHT31;52070;53.760;9.678;2023-07-31T12:41:08;16.45;92.04
65374;SHT31;52070;53.760;9.678;2023-07-31T12:43:35;16.60;92.41
65374;SHT31;52070;53.760;9.678;2023-07-31T12:46:04;16.77;92.06
65374;SHT31;52070;53.760;9.678;2023-07-31T12:48:33;16.73;92.01
65374;SHT31;52070;53.760;9.678;2023-07-31T12:51:01;16.63;91.91
65374;SHT31;52070;53.760;9.678;2023-07-31T12:53:28;16.73;92.06
65374;SHT31;52070;53.760;9.678;2023-07-31T12:55:55;16.76;91.59
65374;SHT31;52070;53.760;9.678;2023-07-31T12:58:22;16.62;91.54
65374;SHT31;52070;53.760;9.678;2023-07-31T13:00:49;16.56;91.99
65374;SHT31;52070;53.760;9.678;2023-07-31T13:03:19;16.52;92.41
65374;SHT31;52070;53.760;9.678;2023-07-31T13:05:46;16.62;92.51
65374;SHT31;52070;53.760;9.678;2023-07-31T13:08:13;16.69;91.59
65374;SHT31;52070;53.760;9.678;2023-07-31T13:10:41;16.67;91.41
65374;SHT31;52070;53.760;9.678;2023-07-31T13:13:09;16.62;91.50
65374;SHT31;52070;53.760;9.678;2023-07-31T13:15:36;16.57;92.00
65374;SHT31;52070;53.760;9.678;2023-07-31T13:18:04;16.49;92.13
65374;SHT31;52070;53.760;9.678;2023-07-31T13:20:32;16.44;92.06
65374;SHT31;52070;53.760;9.678;2023-07-31T13:22:59;16.38;92.17
65374;SHT31;52070;53.760;9.678;2023-07-31T13:25:27;16.48;92.24
65374;SHT31;52070;53.760;9.678;2023-07-31T13:27:54;16.55;92.26
65374;SHT31;52070;53.760;9.678;2023-07-31T13:30:22;16.59;92.17
65374;SHT31;52070;53.760;9.678;2023-07-31T13:32:49;16.59;91.94
65374;SHT31;52070;53.760;9.678;2023-07-31T13:35:16;16.55;91.90
65374;SHT31;52070;53.760;9.678;2023-07-31T13:37:44;16.51;92.09
65374;SHT31;52070;53.760;9.678;2023-07-31T13:40:11;16.46;92.26
65374;SHT31;52070;53.760;9.678;2023-07-31T13:42:38;16.44;92.60
65374;SHT31;52070;53.760;9.678;2023-07-31T13:45:06;16.52;92.94
65374;SHT31;52070;53.760;9.678;2023-07-31T13:47:33;16.52;92.82
65374;SHT31;52070;53.760;9.678;2023-07-31T13:50:00;16.59;92.89
65374;SHT31;52070;53.760;9.678;2023-07-31T13:52:27;16.49;92.79
65374;SHT31;52070;53.760;9.678;2023-07-31T13:54:55;16.51;93.14
65374;SHT31;52070;53.760;9.678;2023-07-31T13:57:23;16.52;93.37
65374;SHT31;52070;53.760;9.678;2023-07-31T13:59:50;16.51;93.39
65374;SHT31;52070;53.760;9.678;2023-07-31T14:02:17;16.49;93.25
65374;SHT31;52070;53.760;9.678;2023-07-31T14:04:44;16.48;93.23
65374;SHT31;52070;53.760;9.678;2023-07-31T14:07:11;16.46;93.32
65374;SHT31;52070;53.760;9.678;2023-07-31T14:09:38;16.45;93.37
65374;SHT31;52070;53.760;9.678;2023-07-31T14:12:07;16.48;93.44
65374;SHT31;52070;53.760;9.678;2023-07-31T14:14:34;16.46;93.57
65374;SHT31;52070;53.760;9.678;2023-07-31T14:17:01;16.41;93.52
65374;SHT31;52070;53.760;9.678;2023-07-31T14:19:28;16.36;93.40
65374;SHT31;52070;53.760;9.678;2023-07-31T14:21:58;16.18;93.19
65374;SHT31;52070;53.760;9.678;2023-07-31T14:24:25;16.06;93.04
65374;SHT31;52070;53.760;9.678;2023-07-31T14:26:52;16.12;93.29
65374;SHT31;52070;53.760;9.678;2023-07-31T14:29:20;16.12;93.34
65374;SHT31;52070;53.760;9.678;2023-07-31T14:31:47;16.16;93.48
65374;SHT31;52070;53.760;9.678;2023-07-31T14:34:14;16.22;93.58
65374;SHT31;52070;53.760;9.678;2023-07-31T14:36:42;16.24;93.63
65374;SHT31;52070;53.760;9.678;2023-07-31T14:39:10;16.28;93.78
65374;SHT31;52070;53.760;9.678;2023-07-31T14:41:37;16.46;93.91
65374;SHT31;52070;53.760;9.678;2023-07-31T14:44:04;16.48;93.83
65374;SHT31;52070;53.760;9.678;2023-07-31T14:46:32;16.42;93.72
65374;SHT31;52070;53.760;9.678;2023-07-31T14:48:59;16.29;93.74
65374;SHT31;52070;53.760;9.678;2023-07-31T14:51:27;16.18;93.77
65374;SHT31;52070;53.760;9.678;2023-07-31T14:53:54;16.19;93.77
65374;SHT31;52070;53.760;9.678;2023-07-31T14:56:21;16.24;93.76
65374;SHT31;52070;53.760;9.678;2023-07-31T14:58:48;16.42;93.84
65374;SHT31;52070;53.760;9.678;2023-07-31T15:01:15;16.48;93.52
65374;SHT31;52070;53.760;9.678;2023-07-31T15:03:43;16.49;93.59
65374;SHT31;52070;53.760;9.678;2023-07-31T15:06:10;16.51;93.70
65374;SHT31;52070;53.760;9.678;2023-07-31T15:08:38;16.57;93.83
65374;SHT31;52070;53.760;9.678;2023-07-31T15:11:07;16.57;93.77
65374;SHT31;52070;53.760;9.678;2023-07-31T15:13:34;16.55;93.70
65374;SHT31;52070;53.760;9.678;2023-07-31T15:16:01;16.46;93.69
65374;SHT31;52070;53.760;9.678;2023-07-31T15:18:28;16.51;93.64
65374;SHT31;52070;53.760;9.678;2023-07-31T15:20:56;16.49;93.48
65374;SHT31;52070;53.760;9.678;2023-07-31T15:23:24;16.36;93.39
65374;SHT31;52070;53.760;9.678;2023-07-31T15:25:52;16.30;93.60
65374;SHT31;52070;53.760;9.678;2023-07-31T15:28:19;16.33;93.78
65374;SHT31;52070;53.760;9.678;2023-07-31T15:30:46;16.30;93.84
65374;SHT31;52070;53.760;9.678;2023-07-31T15:33:13;16.33;94.07
65374;SHT31;52070;53.760;9.678;2023-07-31T15:35:40;16.39;94.28
65374;SHT31;52070;53.760;9.678;2023-07-31T15:38:10;16.39;94.46